Time;durP1;ratioP1;P1;durP2;ratioP2;P2;SDS_P1;SDS_P2;PMS_P1;PMS_P2;Temp;Humidity;BMP_temperature;BMP_pressure;BME280_temperature;BME280_humidity;BME280_pressure;Samples;Min_cycle;Max_cycle;Signal;HPM_P1;HPM_P2
2022/08/15 00:00:54;;;;;;;;;;;;;;;-144.99;56.19;52093.44;5065887;28;20011;-77
2022/08/15 00:03:22;;;;;;;;;;;;;;;-144.99;56.09;52075.09;5068374;28;19928;-76
2022/08/15 00:05:49;;;;;;;;;;;;;;;-144.99;56.90;52089.38;5070434;28;19924;-79
2022/08/15 00:08:18;;;;;;;;;;;;;;;-144.99;57.18;52093.44;5069027;28;20398;-80
2022/08/15 00:10:45;;;;;;;;;;;;;;;-144.99;57.49;52089.38;5062347;28;19932;-79
2022/08/15 00:13:13;;;;;;;;;;;;;;;-144.99;57.80;52089.38;5070139;28;19990;-81
2022/08/15 00:15:39;;;;;;;;;;;;;;;-144.99;57.89;52105.69;5072406;28;19976;-80
2022/08/15 00:18:06;;;;;;;;;;;;;;;-144.99;58.24;52089.38;5076719;28;20431;-80
2022/08/15 00:20:37;;;;;;;;;;;;;;;-144.99;58.24;52064.91;5071497;28;19924;-78
2022/08/15 00:23:04;;;;;;;;;;;;;;;-144.99;58.69;52081.22;5068237;28;19993;-80
2022/08/15 00:25:32;;;;;;;;;;;;;;;-144.99;58.94;52093.44;5074334;28;19924;-79
2022/08/15 00:27:58;;;;;;;;;;;;;;;-144.99;59.15;52089.38;5067687;28;19932;-78
2022/08/15 00:30:26;;;;;;;;;;;;;;;-144.99;59.37;52069.00;5070512;28;20364;-79
2022/08/15 00:32:55;;;;;;;;;;;;;;;-144.99;59.72;52105.69;5065629;28;19924;-78
2022/08/15 00:35:39;;;;;;;;;;;;;;;-144.99;60.05;52085.31;5072861;28;19939;-78
2022/08/15 00:38:06;;;;;;;;;;;;;;;-144.99;60.11;52081.22;5063285;28;20150;-78
2022/08/15 00:41:39;;;;;;;;;;;;;;;-144.99;60.41;52050.66;5075593;28;20023;-79
2022/08/15 00:43:22;;;;;;;;;;;;;;;-144.99;60.71;52105.69;5072074;28;19993;-79
2022/08/15 00:45:49;;;;;;;;;;;;;;;-144.99;61.06;52073.06;5073678;28;19925;-78
2022/08/15 00:51:10;;;;;;;;;;;;;;;-144.99;61.64;52117.91;5039503;28;19924;-79
2022/08/15 00:53:37;;;;;;;;;;;;;;;-144.99;62.15;52130.13;5073309;28;20028;-78
2022/08/15 00:56:06;;;;;;;;;;;;;;;-144.99;62.24;52066.97;5070948;28;20297;-77
2022/08/15 00:58:32;;;;;;;;;;;;;;;-144.99;62.49;52093.44;5065916;28;20014;-78
2022/08/15 01:00:59;;;;;;;;;;;;;;;-144.99;62.98;52109.75;5070183;28;19928;-77
2022/08/15 01:03:29;;;;;;;;;;;;;;;-144.99;63.01;52101.59;5071215;28;19929;-77
2022/08/15 01:05:56;;;;;;;;;;;;;;;-144.99;63.23;52085.31;5068927;28;19925;-77
2022/08/15 01:08:26;;;;;;;;;;;;;;;-144.99;63.55;52085.31;5069175;28;20022;-77
2022/08/15 01:10:53;;;;;;;;;;;;;;;-144.99;63.80;52062.88;5069215;28;19925;-76
2022/08/15 01:13:22;;;;;;;;;;;;;;;-144.99;64.09;52077.16;5064292;28;19931;-77
2022/08/15 01:15:48;;;;;;;;;;;;;;;-144.99;64.49;52077.16;5067736;28;19925;-77
2022/08/15 01:18:15;;;;;;;;;;;;;;;-144.99;64.84;52089.38;5069118;28;19924;-77
2022/08/15 01:20:42;;;;;;;;;;;;;;;-144.99;65.03;52111.78;5068622;28;19925;-78
2022/08/15 01:23:11;;;;;;;;;;;;;;;-144.99;65.05;52073.06;5074309;28;20031;-79
2022/08/15 01:25:41;;;;;;;;;;;;;;;-144.99;65.34;52121.97;5068706;28;19970;-79
2022/08/15 01:28:09;;;;;;;;;;;;;;;-144.99;65.56;52081.22;5067222;28;19967;-78
2022/08/15 01:30:38;;;;;;;;;;;;;;;-144.99;65.88;52077.16;5070433;28;19937;-79
2022/08/15 01:33:05;;;;;;;;;;;;;;;-144.99;65.99;52101.59;5061031;28;19932;-78
2022/08/15 01:35:32;;;;;;;;;;;;;;;-144.99;66.20;52083.25;5064728;28;19925;-78
2022/08/15 01:37:58;;;;;;;;;;;;;;;-144.99;66.45;52101.59;5074801;28;20440;-79
2022/08/15 01:40:28;;;;;;;;;;;;;;;-144.99;66.86;52077.16;5069472;28;19968;-79
2022/08/15 01:42:57;;;;;;;;;;;;;;;-144.99;66.92;52095.50;5062122;28;19960;-78
2022/08/15 01:45:24;;;;;;;;;;;;;;;-144.99;67.11;52109.75;5075744;28;19935;-78
2022/08/15 01:47:53;;;;;;;;;;;;;;;-144.99;67.75;52048.63;5072482;28;19943;-77
2022/08/15 01:50:21;;;;;;;;;;;;;;;-144.99;67.88;52097.53;5072315;28;19929;-78
2022/08/15 01:52:50;;;;;;;;;;;;;;;-144.99;68.14;52134.22;5071418;28;19992;-77
2022/08/15 01:55:18;;;;;;;;;;;;;;;-144.99;68.30;52105.69;5072695;28;19924;-78
2022/08/15 01:57:44;;;;;;;;;;;;;;;-144.99;68.98;52142.38;5073577;28;19951;-78
2022/08/15 02:00:15;;;;;;;;;;;;;;;-144.99;69.04;52097.53;5087275;28;19929;-77
2022/08/15 02:02:42;;;;;;;;;;;;;;;-144.99;69.58;52085.31;5078040;28;19921;-77
2022/08/15 02:05:09;;;;;;;;;;;;;;;-144.99;69.87;52097.53;5088590;28;19929;-78
2022/08/15 02:07:35;;;;;;;;;;;;;;;-144.99;70.66;52093.44;5085808;28;19983;-77
2022/08/15 02:10:01;;;;;;;;;;;;;;;-144.99;71.32;52097.53;5077323;28;19931;-79
2022/08/15 02:12:29;;;;;;;;;;;;;;;-144.99;71.63;52097.53;5086061;28;19928;-80
2022/08/15 02:14:55;;;;;;;;;;;;;;;-144.99;72.35;52081.22;5092498;28;19955;-78
2022/08/15 02:17:23;;;;;;;;;;;;;;;-144.99;72.71;52113.84;5095161;28;19919;-80
2022/08/15 02:19:50;;;;;;;;;;;;;;;-144.99;73.19;52081.22;5090489;28;19952;-77
2022/08/15 02:22:18;;;;;;;;;;;;;;;-144.99;74.09;52085.31;5095199;28;20064;-78
2022/08/15 02:24:45;;;;;;;;;;;;;;;-144.99;74.46;52105.69;5092191;28;20067;-78
2022/08/15 02:27:12;;;;;;;;;;;;;;;-144.99;74.61;52134.22;5093548;28;19929;-81
2022/08/15 02:29:39;;;;;;;;;;;;;;;-144.99;74.98;52089.38;5088989;28;20027;-81
2022/08/15 02:32:08;;;;;;;;;;;;;;;-144.99;75.06;52113.84;5083747;28;19916;-75
2022/08/15 02:34:35;;;;;;;;;;;;;;;-144.99;75.18;52089.38;5095246;28;19912;-78
2022/08/15 02:37:03;;;;;;;;;;;;;;;-144.99;75.72;52091.41;5097136;28;19920;-78
2022/08/15 02:39:29;;;;;;;;;;;;;;;-144.99;75.93;52089.38;5096710;28;19928;-77
2022/08/15 02:41:56;;;;;;;;;;;;;;;-144.99;76.44;52128.09;5096973;28;19913;-79
2022/08/15 02:44:22;;;;;;;;;;;;;;;-144.99;77.12;52097.53;5096827;28;19912;-76
2022/08/15 02:46:49;;;;;;;;;;;;;;;-144.99;77.32;52117.91;5080070;28;19920;-76
2022/08/15 02:49:16;;;;;;;;;;;;;;;-144.99;77.94;52109.75;5089099;28;19967;-76
2022/08/15 02:51:44;;;;;;;;;;;;;;;-144.99;78.58;52097.53;5076124;28;19912;-75
2022/08/15 02:54:11;;;;;;;;;;;;;;;-144.99;78.64;52103.66;5076466;28;19924;-78
2022/08/15 02:56:37;;;;;;;;;;;;;;;-144.99;78.74;52083.25;5095466;28;19928;-77
2022/08/15 02:59:07;;;;;;;;;;;;;;;-144.99;78.77;52134.22;5095325;28;19929;-79
2022/08/15 03:01:37;;;;;;;;;;;;;;;-144.99;79.00;52089.38;5069129;28;20094;-79
2022/08/15 03:04:05;;;;;;;;;;;;;;;-144.99;79.33;52093.44;5073154;28;20352;-79
2022/08/15 03:06:32;;;;;;;;;;;;;;;-144.99;79.40;52107.72;5073662;28;20032;-79
2022/08/15 03:09:00;;;;;;;;;;;;;;;-144.99;79.93;52119.94;5070869;28;20365;-79
2022/08/15 03:11:27;;;;;;;;;;;;;;;-144.99;80.18;52081.22;5068637;28;20174;-79
2022/08/15 03:13:54;;;;;;;;;;;;;;;-144.99;81.41;52126.06;5065610;28;19936;-77
2022/08/15 03:16:20;;;;;;;;;;;;;;;-144.99;81.15;52117.91;5071694;28;19935;-76
2022/08/15 03:18:47;;;;;;;;;;;;;;;-144.99;81.53;52071.03;5073682;28;20414;-77
2022/08/15 03:21:19;;;;;;;;;;;;;;;-144.99;81.98;52113.84;5067894;28;19924;-77
2022/08/15 03:23:48;;;;;;;;;;;;;;;-144.99;81.83;52111.78;5068530;28;19925;-77
2022/08/15 03:26:17;;;;;;;;;;;;;;;-144.99;82.88;52117.91;5075533;28;20049;-78
2022/08/15 03:28:44;;;;;;;;;;;;;;;-144.99;83.64;52113.84;5076303;28;19997;-77
2022/08/15 03:31:10;;;;;;;;;;;;;;;-144.99;83.93;52142.38;5073759;28;19925;-76
2022/08/15 03:33:38;;;;;;;;;;;;;;;-144.99;84.55;52101.59;5066773;28;19932;-77
2022/08/15 03:36:06;;;;;;;;;;;;;;;-144.99;84.71;52119.94;5077627;28;19931;-77
2022/08/15 03:38:32;;;;;;;;;;;;;;;-144.99;85.38;52121.97;5071186;28;20264;-77
2022/08/15 03:40:59;;;;;;;;;;;;;;;-144.99;85.18;52113.84;5074726;28;19935;-77
2022/08/15 03:43:28;;;;;;;;;;;;;;;-144.99;85.63;52134.22;5071976;28;19973;-77
2022/08/15 03:45:58;;;;;;;;;;;;;;;-144.99;85.47;52124.03;5067622;28;19925;-77
2022/08/15 03:48:25;;;;;;;;;;;;;;;-144.99;85.59;52154.59;5076890;28;20030;-78
2022/08/15 03:50:52;;;;;;;;;;;;;;;-144.99;85.87;52132.19;5073873;28;19928;-78
2022/08/15 03:53:19;;;;;;;;;;;;;;;-144.99;85.95;52101.59;5079908;28;19934;-78
2022/08/15 03:55:46;;;;;;;;;;;;;;;-144.99;85.82;52105.69;5085762;28;19929;-80
2022/08/15 03:58:13;;;;;;;;;;;;;;;-144.99;86.09;52093.44;5086872;28;19966;-78
2022/08/15 04:00:43;;;;;;;;;;;;;;;-144.99;86.00;52109.75;5085416;28;20001;-78
2022/08/15 04:03:11;;;;;;;;;;;;;;;-144.99;85.67;52107.72;5077547;28;20019;-79
2022/08/15 04:05:38;;;;;;;;;;;;;;;-144.99;85.80;52126.06;5072632;28;20519;-78
2022/08/15 04:08:05;;;;;;;;;;;;;;;-144.99;86.26;52101.59;5073364;28;19967;-79
2022/08/15 04:10:32;;;;;;;;;;;;;;;-144.99;86.52;52121.97;5073509;28;20306;-79
2022/08/15 04:12:58;;;;;;;;;;;;;;;-144.99;86.88;52130.13;5070053;28;19935;-78
2022/08/15 04:15:27;;;;;;;;;;;;;;;-144.99;86.84;52081.22;5072376;28;19928;-78
2022/08/15 04:17:55;;;;;;;;;;;;;;;-144.99;86.84;52113.84;5078689;28;19924;-80
2022/08/15 04:20:22;;;;;;;;;;;;;;;-144.99;87.22;52117.91;5082238;28;19959;-78
2022/08/15 04:22:49;;;;;;;;;;;;;;;-144.99;87.11;52069.00;5077122;28;20374;-78
2022/08/15 04:25:18;;;;;;;;;;;;;;;-144.99;87.63;52117.91;5071630;28;19924;-76
2022/08/15 04:27:44;;;;;;;;;;;;;;;-144.99;87.94;52109.75;5066270;28;19924;-77
2022/08/15 04:30:11;;;;;;;;;;;;;;;-144.99;87.59;52121.97;5077782;28;20019;-79
2022/08/15 04:32:39;;;;;;;;;;;;;;;-144.99;87.60;52085.31;5076696;28;20000;-78
2022/08/15 04:35:08;;;;;;;;;;;;;;;-144.99;87.66;52121.97;5071885;28;19928;-77
2022/08/15 04:37:37;;;;;;;;;;;;;;;-144.99;87.49;52095.50;5068748;28;20387;-78
2022/08/15 04:40:04;;;;;;;;;;;;;;;-144.99;87.25;52121.97;5073438;28;19942;-78
2022/08/15 04:42:30;;;;;;;;;;;;;;;-144.99;87.37;52081.22;5076055;28;20393;-78
2022/08/15 04:44:57;;;;;;;;;;;;;;;-144.99;86.79;52101.59;5073694;28;19959;-78
2022/08/15 04:47:23;;;;;;;;;;;;;;;-144.99;86.97;52105.69;5087843;28;19932;-80
2022/08/15 04:49:50;;;;;;;;;;;;;;;-144.99;86.75;52109.75;5092021;28;19944;-78
2022/08/15 04:52:19;;;;;;;;;;;;;;;-144.99;86.39;52097.53;5076559;28;20330;-78
2022/08/15 04:54:45;;;;;;;;;;;;;;;-144.99;86.62;52093.44;5073417;28;19924;-77
2022/08/15 04:57:13;;;;;;;;;;;;;;;-144.99;86.42;52089.38;5071209;28;19929;-80
2022/08/15 04:59:39;;;;;;;;;;;;;;;-144.99;86.34;52134.22;5070027;28;20015;-78
2022/08/15 05:02:07;;;;;;;;;;;;;;;-144.99;86.30;52093.44;5075471;28;19935;-78
2022/08/15 05:04:34;;;;;;;;;;;;;;;-144.99;86.34;52077.16;5073749;28;19935;-78
2022/08/15 05:07:00;;;;;;;;;;;;;;;-144.99;85.91;52134.22;5071162;28;19950;-79
2022/08/15 05:09:28;;;;;;;;;;;;;;;-144.99;85.46;52105.69;5063891;28;19954;-78
2022/08/15 05:11:55;;;;;;;;;;;;;;;-144.99;84.97;52085.31;5064641;28;19928;-78
2022/08/15 05:14:21;;;;;;;;;;;;;;;-144.99;84.17;52097.53;5067256;28;20139;-78
2022/08/15 05:16:47;;;;;;;;;;;;;;;-144.99;83.77;52097.53;5071882;28;19950;-80
2022/08/15 05:19:14;;;;;;;;;;;;;;;-144.99;83.23;52060.84;5061820;28;20291;-74
2022/08/15 05:21:40;;;;;;;;;;;;;;;-144.99;83.06;52105.69;5061641;28;19931;-76
2022/08/15 05:24:09;;;;;;;;;;;;;;;-144.99;82.44;52101.59;5065705;28;19967;-77
2022/08/15 05:26:38;;;;;;;;;;;;;;;-144.99;81.61;52093.44;5070334;28;19978;-77
2022/08/15 05:29:06;;;;;;;;;;;;;;;-144.99;81.22;52050.66;5072584;28;19978;-76
2022/08/15 05:31:32;;;;;;;;;;;;;;;-144.99;81.00;52028.22;5061447;28;20015;-76
2022/08/15 05:34:00;;;;;;;;;;;;;;;-144.99;80.09;52064.91;5070189;28;19929;-77
2022/08/15 05:36:26;;;;;;;;;;;;;;;-144.99;79.64;52056.78;5070676;28;19924;-77
2022/08/15 05:38:55;;;;;;;;;;;;;;;-144.99;79.74;52101.59;5072321;28;19925;-78
2022/08/15 05:41:24;;;;;;;;;;;;;;;-144.99;78.96;52073.06;5070003;28;19936;-76
2022/08/15 05:44:00;;;;;;;;;;;;;;;-144.99;78.40;52089.38;5070685;28;20015;-78
2022/08/15 05:46:33;;;;;;;;;;;;;;;-144.99;78.01;52089.38;5071265;28;19924;-78
2022/08/15 05:49:02;;;;;;;;;;;;;;;-144.99;77.45;52079.19;5061480;28;19971;-79
2022/08/15 05:51:32;;;;;;;;;;;;;;;-144.99;76.52;52048.63;5072601;28;20007;-77
2022/08/15 05:54:02;;;;;;;;;;;;;;;-144.99;76.47;52064.91;5073657;28;20009;-79
2022/08/15 05:56:36;;;;;;;;;;;;;;;-144.99;74.83;52056.78;5056535;28;20396;-77
2022/08/15 05:59:06;;;;;;;;;;;;;;;-144.99;74.02;52064.91;5094964;22;20011;-77
2022/08/15 06:01:35;;;;;;;;;;;;;;;-144.99;73.58;52060.84;5072538;28;20291;-78
2022/08/15 06:04:06;;;;;;;;;;;;;;;-144.99;73.38;52040.47;5067618;28;20345;-78
2022/08/15 06:06:35;;;;;;;;;;;;;;;-144.99;72.53;52044.53;5075226;28;19959;-78
2022/08/15 06:09:04;;;;;;;;;;;;;;;-144.99;72.68;52048.63;5085864;28;20359;-78
2022/08/15 06:11:32;;;;;;;;;;;;;;;-144.99;72.31;52073.06;5081204;28;19935;-77
2022/08/15 06:14:01;;;;;;;;;;;;;;;-144.99;71.90;52040.47;5076757;28;19931;-78
2022/08/15 06:16:32;;;;;;;;;;;;;;;-144.99;71.07;52052.69;5071910;28;19952;-78
2022/08/15 06:19:00;;;;;;;;;;;;;;;-144.99;70.42;52060.84;5070975;28;19931;-78
2022/08/15 06:21:32;;;;;;;;;;;;;;;-144.99;69.71;52005.81;5071880;28;20016;-77
2022/08/15 06:24:05;;;;;;;;;;;;;;;-144.99;69.29;52024.16;5068406;28;19925;-77
2022/08/15 06:26:37;;;;;;;;;;;;;;;-144.99;68.96;52052.69;5068678;28;19936;-77
2022/08/15 06:29:16;;;;;;;;;;;;;;;-144.99;68.29;52026.19;5071181;28;19932;-77
2022/08/15 06:31:45;;;;;;;;;;;;;;;-144.99;67.62;52020.09;5071384;28;19964;-77
2022/08/15 06:34:20;;;;;;;;;;;;;;;-144.99;66.96;52032.31;5071205;28;20007;-77
2022/08/15 06:36:50;;;;;;;;;;;;;;;-144.99;66.80;52048.63;5069142;28;19929;-77
2022/08/15 06:39:20;;;;;;;;;;;;;;;-144.99;66.21;52036.38;5072791;28;20294;-76
2022/08/15 06:41:50;;;;;;;;;;;;;;;-144.99;65.91;52018.03;5070773;28;20033;-76
2022/08/15 06:44:18;;;;;;;;;;;;;;;-144.99;65.15;52016.00;5069297;28;19925;-77
2022/08/15 06:46:47;;;;;;;;;;;;;;;-144.99;64.75;52038.44;5065683;28;20174;-77
2022/08/15 06:49:14;;;;;;;;;;;;;;;-144.99;64.16;52016.00;5063863;28;20317;-77
2022/08/15 06:51:42;;;;;;;;;;;;;;;-144.99;63.49;52032.31;5066633;28;20016;-77
2022/08/15 06:54:12;;;;;;;;;;;;;;;-144.99;63.56;51983.41;5070138;28;19925;-77
2022/08/15 06:56:40;;;;;;;;;;;;;;;-144.99;62.83;51997.66;5070786;28;19924;-77
2022/08/15 06:59:14;;;;;;;;;;;;;;;-144.99;62.27;52032.31;5067971;28;19964;-78
2022/08/15 07:01:49;;;;;;;;;;;;;;;-144.99;61.96;51999.69;5063452;28;19925;-77
2022/08/15 07:04:21;;;;;;;;;;;;;;;-144.99;61.79;52020.09;5073273;28;19967;-77
2022/08/15 07:06:51;;;;;;;;;;;;;;;-144.99;60.98;52028.22;5070586;28;19931;-77
2022/08/15 07:09:26;;;;;;;;;;;;;;;-144.99;60.73;52001.75;5070260;28;19925;-78
2022/08/15 07:11:56;;;;;;;;;;;;;;;-144.99;60.73;52016.00;5073259;28;19931;-78
2022/08/15 07:14:25;;;;;;;;;;;;;;;-144.99;60.05;51983.41;5067877;28;20030;-77
2022/08/15 07:16:58;;;;;;;;;;;;;;;-144.99;59.41;52007.84;5071915;28;19992;-78
2022/08/15 07:19:26;;;;;;;;;;;;;;;-144.99;58.66;52001.75;5071088;28;20015;-78
2022/08/15 07:21:52;;;;;;;;;;;;;;;-144.99;58.29;51991.56;5074131;28;19931;-77
2022/08/15 07:24:29;;;;;;;;;;;;;;;-144.99;57.82;51993.59;5074163;28;20514;-77
2022/08/15 07:26:57;;;;;;;;;;;;;;;-144.99;57.07;52009.91;5068295;28;19935;-78
2022/08/15 07:29:29;;;;;;;;;;;;;;;-144.99;56.42;52020.09;5068440;28;19924;-76
2022/08/15 07:32:00;;;;;;;;;;;;;;;-144.99;56.09;51987.47;5066789;28;19924;-77
2022/08/15 07:34:29;;;;;;;;;;;;;;;-144.99;55.74;51987.47;5065028;28;20148;-76
2022/08/15 07:36:57;;;;;;;;;;;;;;;-144.99;55.08;51993.59;5075097;28;19936;-77
2022/08/15 07:39:25;;;;;;;;;;;;;;;-144.99;54.95;51963.03;5071365;28;19932;-76
2022/08/15 07:41:51;;;;;;;;;;;;;;;-144.99;54.32;51975.25;5068343;28;20459;-77
2022/08/15 07:44:19;;;;;;;;;;;;;;;-144.99;54.05;51928.38;5069954;28;20538;-76
2022/08/15 07:46:51;;;;;;;;;;;;;;;-144.99;53.35;51967.09;5074822;28;19975;-77
2022/08/15 07:49:20;;;;;;;;;;;;;;;-144.99;52.80;51950.78;5077144;28;20445;-77
2022/08/15 07:51:50;;;;;;;;;;;;;;;-144.99;52.52;51983.41;5065357;28;19931;-77
2022/08/15 07:54:22;;;;;;;;;;;;;;;-144.99;51.97;51975.25;4376060;28;10000740;-78
2022/08/15 07:56:51;;;;;;;;;;;;;;;-144.99;52.19;52003.78;5078236;28;20540;-77
2022/08/15 07:59:20;;;;;;;;;;;;;;;-144.99;51.46;51983.41;5077843;28;19924;-78
2022/08/15 08:01:47;;;;;;;;;;;;;;;-144.99;50.89;51938.56;5079629;28;20018;-79
2022/08/15 08:04:18;;;;;;;;;;;;;;;-144.99;50.72;51940.59;5071929;28;20011;-78
2022/08/15 08:06:48;;;;;;;;;;;;;;;-144.99;50.78;51950.78;5077377;28;20439;-78
2022/08/15 08:09:20;;;;;;;;;;;;;;;-144.99;50.37;51954.88;5074641;28;19984;-78
2022/08/15 08:11:48;;;;;;;;;;;;;;;-144.99;49.80;51958.94;5077779;28;19924;-78
2022/08/15 08:14:22;;;;;;;;;;;;;;;-144.99;49.26;51963.03;5075340;28;19931;-78
2022/08/15 08:16:53;;;;;;;;;;;;;;;-144.99;49.13;51954.88;5073068;28;19924;-78
2022/08/15 08:19:24;;;;;;;;;;;;;;;-144.99;48.63;51946.72;5074490;28;20083;-79
2022/08/15 08:21:53;;;;;;;;;;;;;;;-144.99;47.98;51938.56;5073367;28;19993;-79
2022/08/15 08:24:26;;;;;;;;;;;;;;;-144.99;48.08;51954.88;5073451;28;19931;-78
2022/08/15 08:26:58;;;;;;;;;;;;;;;-144.99;47.93;51940.59;5072914;28;19924;-78
2022/08/15 08:29:33;;;;;;;;;;;;;;;-144.99;47.39;51958.94;5074931;28;19990;-78
2022/08/15 08:32:03;;;;;;;;;;;;;;;-144.99;47.50;51963.03;5077230;28;19977;-78
2022/08/15 08:34:35;;;;;;;;;;;;;;;-144.99;47.19;51987.47;5071908;28;19928;-79
2022/08/15 08:37:04;;;;;;;;;;;;;;;-144.99;47.10;51950.78;5082044;28;20015;-77
2022/08/15 08:39:40;;;;;;;;;;;;;;;-144.99;47.54;51934.50;5075604;28;20011;-77
2022/08/15 08:42:12;;;;;;;;;;;;;;;-144.99;46.56;51946.72;5075400;28;20792;-78
2022/08/15 08:44:43;;;;;;;;;;;;;;;-144.99;46.33;51954.88;5079214;28;19925;-77
2022/08/15 08:47:19;;;;;;;;;;;;;;;-144.99;45.70;51918.19;5080172;28;19963;-78
2022/08/15 08:49:53;;;;;;;;;;;;;;;-144.99;46.03;51942.63;5078502;28;20430;-77
2022/08/15 08:52:25;;;;;;;;;;;;;;;-144.99;45.07;51922.25;5071556;28;19994;-77
2022/08/15 08:55:00;;;;;;;;;;;;;;;-144.99;45.04;51930.41;5073376;28;19929;-78
2022/08/15 08:57:29;;;;;;;;;;;;;;;-144.99;44.61;51897.81;5074768;28;19964;-77
2022/08/15 09:00:00;;;;;;;;;;;;;;;-144.99;44.39;51926.34;5079247;28;20035;-79
2022/08/15 09:02:28;;;;;;;;;;;;;;;-144.99;44.26;51899.84;5074823;28;20035;-78
2022/08/15 09:04:56;;;;;;;;;;;;;;;-144.99;44.24;51901.88;5076636;28;20367;-80
2022/08/15 09:07:26;;;;;;;;;;;;;;;-144.99;44.13;51910.03;5077821;28;19959;-79
2022/08/15 09:09:55;;;;;;;;;;;;;;;-144.99;43.87;51901.88;5092460;28;19929;-78
2022/08/15 09:15:14;;;;;;;;;;;;;;;-144.99;43.08;51899.84;5087287;28;19950;-78
2022/08/15 09:17:42;;;;;;;;;;;;;;;-144.99;42.86;51869.28;5091962;28;20317;-79
2022/08/15 09:20:11;;;;;;;;;;;;;;;-144.99;42.39;51877.44;5083551;28;20023;-78
2022/08/15 09:22:38;;;;;;;;;;;;;;;-144.99;41.98;51877.44;5075384;28;20022;-78
2022/08/15 09:25:06;;;;;;;;;;;;;;;-144.99;41.25;51897.81;5073497;28;20263;-78
2022/08/15 09:27:36;;;;;;;;;;;;;;;-144.99;41.60;51852.97;5074524;28;19924;-78
2022/08/15 09:30:05;;;;;;;;;;;;;;;-144.99;41.36;51861.13;5070088;28;19929;-78
2022/08/15 09:32:41;;;;;;;;;;;;;;;-144.99;40.89;51885.56;5073389;28;19970;-78
2022/08/15 09:35:17;;;;;;;;;;;;;;;-144.99;41.31;51893.72;5071799;28;19928;-78
2022/08/15 09:37:53;;;;;;;;;;;;;;;-144.99;40.10;51873.34;5079471;28;19936;-78
2022/08/15 09:40:42;;;;;;;;;;;;;;;-144.99;40.49;51873.34;5065763;28;19975;-78
2022/08/15 09:43:32;;;;;;;;;;;;;;;-144.99;40.13;51863.16;5075141;28;19947;-79
2022/08/15 09:46:13;;;;;;;;;;;;;;;-144.99;39.92;51881.50;5055816;28;19931;-78
2022/08/15 09:48:50;;;;;;;;;;;;;;;-144.99;39.88;51840.75;5069162;28;19985;-79
2022/08/15 09:51:25;;;;;;;;;;;;;;;-144.99;39.37;51865.19;5075779;28;20019;-80
2022/08/15 09:54:05;;;;;;;;;;;;;;;-144.99;39.19;51897.81;5080077;28;19956;-78
2022/08/15 09:56:32;;;;;;;;;;;;;;;-144.99;38.96;51873.34;5084121;28;19924;-77
2022/08/15 09:59:05;;;;;;;;;;;;;;;-144.99;39.51;51873.34;5083702;28;19995;-79
2022/08/15 10:01:42;;;;;;;;;;;;;;;-144.99;39.37;51830.56;5082978;28;20280;-81
2022/08/15 10:04:12;;;;;;;;;;;;;;;-144.99;38.92;51824.44;5080786;28;19928;-80
2022/08/15 10:06:48;;;;;;;;;;;;;;;-144.99;38.20;51836.66;5079206;28;19946;-80
2022/08/15 10:09:23;;;;;;;;;;;;;;;-144.99;38.02;51852.97;5082226;28;19936;-77
2022/08/15 10:12:07;;;;;;;;;;;;;;;-144.99;38.22;51844.81;5094194;28;19979;-78
2022/08/15 10:14:42;;;;;;;;;;;;;;;-144.99;37.60;51828.50;5075826;28;20062;-78
2022/08/15 10:17:25;;;;;;;;;;;;;;;-144.99;37.43;51799.97;5092896;28;19925;-78
2022/08/15 10:19:51;;;;;;;;;;;;;;;-144.99;37.17;51828.50;5091063;28;19924;-78
2022/08/15 10:22:49;;;;;;;;;;;;;;;-144.99;36.21;51804.06;5099793;28;19918;-79
2022/08/15 10:25:17;;;;;;;;;;;;;;;-144.99;35.94;51793.88;4985117;28;19926;-78
2022/08/15 10:27:58;;;;;;;;;;;;;;;-144.99;36.21;51799.97;5069712;28;19923;-78
2022/08/15 10:30:26;;;;;;;;;;;;;;;-144.99;36.02;51789.78;5084591;28;19956;-78
2022/08/15 10:32:54;;;;;;;;;;;;;;;-144.99;36.48;51808.13;5091423;28;19925;-78
2022/08/15 10:35:23;;;;;;;;;;;;;;;-144.99;36.38;51787.75;5084480;28;20195;-78
2022/08/15 10:37:53;;;;;;;;;;;;;;;-144.99;36.10;51787.75;5098387;28;19944;-78
2022/08/15 10:40:30;;;;;;;;;;;;;;;-144.99;36.40;51767.38;5077987;28;19932;-79
2022/08/15 10:43:05;;;;;;;;;;;;;;;-144.99;36.41;51771.44;5079690;28;20122;-79
2022/08/15 10:45:41;;;;;;;;;;;;;;;-144.99;35.40;51767.38;5078038;28;19972;-79
2022/08/15 10:48:16;;;;;;;;;;;;;;;-144.99;36.04;51755.16;5076629;28;20375;-79
2022/08/15 10:50:46;;;;;;;;;;;;;;;-144.99;36.73;51791.84;5059323;28;19925;-77
2022/08/15 10:53:19;;;;;;;;;;;;;;;-144.99;36.47;51757.19;5061336;28;19933;-78
2022/08/15 10:55:46;;;;;;;;;;;;;;;-144.99;35.42;51722.53;5068058;28;19935;-79
2022/08/15 10:58:14;;;;;;;;;;;;;;;-144.99;35.03;51677.72;5067890;28;19947;-78
2022/08/15 11:00:46;;;;;;;;;;;;;;;-144.99;34.36;51710.31;5067735;28;20019;-78
2022/08/15 11:03:18;;;;;;;;;;;;;;;-144.99;33.81;51685.88;5068964;28;19924;-78
2022/08/15 11:05:44;;;;;;;;;;;;;;;-144.99;33.64;51671.59;5068592;28;20007;-78
2022/08/15 11:08:12;;;;;;;;;;;;;;;-144.99;34.30;51677.72;5067639;28;19964;-78
2022/08/15 11:10:39;;;;;;;;;;;;;;;-144.99;34.86;51740.88;5068312;28;19934;-77
2022/08/15 11:13:07;;;;;;;;;;;;;;;-144.99;34.83;51726.63;5065225;28;19928;-76
2022/08/15 11:15:45;;;;;;;;;;;;;;;-144.99;34.13;51669.56;5064370;28;19924;-76
2022/08/15 11:18:11;;;;;;;;;;;;;;;-144.99;34.61;51724.59;5065786;28;20135;-76
2022/08/15 11:20:43;;;;;;;;;;;;;;;-144.99;34.22;51673.63;5064292;28;19943;-77
2022/08/15 11:23:10;;;;;;;;;;;;;;;-144.99;34.33;51649.19;5067663;28;19931;-76
2022/08/15 11:25:38;;;;;;;;;;;;;;;-144.99;34.43;51677.72;5068589;28;19932;-76
2022/08/15 11:28:05;;;;;;;;;;;;;;;-144.99;33.60;51663.44;5068746;28;19928;-76
2022/08/15 11:30:33;;;;;;;;;;;;;;;-144.99;34.33;51698.09;5066329;28;20429;-76
2022/08/15 11:33:14;;;;;;;;;;;;;;;-144.99;35.29;51722.53;5063406;28;19929;-76
2022/08/15 11:35:42;;;;;;;;;;;;;;;-144.99;34.87;51687.91;5071605;28;19924;-75
2022/08/15 11:38:08;;;;;;;;;;;;;;;-144.99;34.72;51689.94;5072079;28;20033;-77
2022/08/15 11:40:37;;;;;;;;;;;;;;;-144.99;34.31;51714.41;5070384;28;19931;-74
2022/08/15 11:43:04;;;;;;;;;;;;;;;-144.99;34.11;51702.16;5071499;28;20030;-77
2022/08/15 11:45:33;;;;;;;;;;;;;;;-144.99;34.01;51712.34;5066083;28;19934;-75
2022/08/15 11:48:00;;;;;;;;;;;;;;;-144.99;33.42;51698.09;5067278;28;19928;-76
2022/08/15 11:50:28;;;;;;;;;;;;;;;-144.99;33.62;51702.16;5070873;28;19925;-78
2022/08/15 11:52:58;;;;;;;;;;;;;;;-144.99;32.54;51657.34;5068406;28;20353;-77
2022/08/15 11:55:41;;;;;;;;;;;;;;;-144.99;32.58;51663.44;5067831;28;19924;-75
2022/08/15 11:58:19;;;;;;;;;;;;;;;-144.99;32.44;51665.50;5066517;28;20035;-76
2022/08/15 12:00:48;;;;;;;;;;;;;;;-144.99;33.07;51696.06;5068476;28;19935;-75
2022/08/15 12:03:19;;;;;;;;;;;;;;;-144.99;33.15;51710.31;5071225;28;19967;-76
2022/08/15 12:05:47;;;;;;;;;;;;;;;-144.99;32.88;51689.94;5072426;28;20391;-75
2022/08/15 12:08:21;;;;;;;;;;;;;;;-144.99;32.74;51673.63;5071269;28;20000;-76
2022/08/15 12:10:47;;;;;;;;;;;;;;;-144.99;32.71;51657.34;5072765;28;19968;-77
2022/08/15 12:13:16;;;;;;;;;;;;;;;-144.99;33.32;51718.47;5076363;28;19932;-77
2022/08/15 12:15:44;;;;;;;;;;;;;;;-144.99;33.09;51694.00;5076400;28;19931;-76
2022/08/15 12:18:12;;;;;;;;;;;;;;;-144.99;32.65;51673.63;5070773;28;20007;-77
2022/08/15 12:20:46;;;;;;;;;;;;;;;-144.99;33.36;51694.00;5066727;28;19932;-78
2022/08/15 12:23:25;;;;;;;;;;;;;;;-144.99;33.08;51685.88;5062008;28;20510;-77
2022/08/15 12:25:52;;;;;;;;;;;;;;;-144.99;32.87;51665.50;5063528;28;20342;-78
2022/08/15 12:28:19;;;;;;;;;;;;;;;-144.99;32.08;51632.88;5064821;28;19947;-78
2022/08/15 12:30:46;;;;;;;;;;;;;;;-144.99;31.78;51645.09;5065003;28;19924;-79
2022/08/15 12:33:13;;;;;;;;;;;;;;;-144.99;31.39;51598.25;5064242;28;19924;-77
2022/08/15 12:35:39;;;;;;;;;;;;;;;-144.99;30.95;51612.50;5061803;28;19924;-77
2022/08/15 12:38:06;;;;;;;;;;;;;;;-144.99;30.73;51624.72;5066118;28;20023;-77
2022/08/15 12:40:33;;;;;;;;;;;;;;;-144.99;30.95;51655.28;5063552;28;19931;-77
2022/08/15 12:43:00;;;;;;;;;;;;;;;-144.99;31.51;51685.88;5064622;28;19924;-78